sensor_id;sensor_type;location;lat;lon;timestamp;P1;durP1;ratioP1;P2;durP2;ratioP2
16862;SDS011;52193;48.216;-1.698;2022-09-09T00:00:18;12.35;;;3.50;;
16862;SDS011;52193;48.216;-1.698;2022-09-09T00:02:47;10.88;;;3.75;;
16862;SDS011;52193;48.216;-1.698;2022-09-09T00:05:23;9.73;;;3.47;;
16862;SDS011;52193;48.216;-1.698;2022-09-09T00:07:58;9.15;;;3.33;;
16862;SDS011;52193;48.216;-1.698;2022-09-09T00:10:31;11.07;;;3.28;;
16862;SDS011;52193;48.216;-1.698;2022-09-09T00:13:01;13.77;;;3.95;;
16862;SDS011;52193;48.216;-1.698;2022-09-09T00:15:42;9.10;;;3.05;;
16862;SDS011;52193;48.216;-1.698;2022-09-09T00:18:15;12.63;;;3.28;;
16862;SDS011;52193;48.216;-1.698;2022-09-09T00:20:49;13.18;;;3.60;;
16862;SDS011;52193;48.216;-1.698;2022-09-09T00:23:24;11.73;;;3.50;;
16862;SDS011;52193;48.216;-1.698;2022-09-09T00:25:57;13.40;;;4.00;;
16862;SDS011;52193;48.216;-1.698;2022-09-09T00:28:28;10.80;;;3.78;;
16862;SDS011;52193;48.216;-1.698;2022-09-09T00:31:00;11.68;;;3.58;;
16862;SDS011;52193;48.216;-1.698;2022-09-09T00:33:37;13.27;;;3.75;;
16862;SDS011;52193;48.216;-1.698;2022-09-09T00:36:07;11.75;;;3.10;;
16862;SDS011;52193;48.216;-1.698;2022-09-09T00:38:41;9.73;;;3.30;;
16862;SDS011;52193;48.216;-1.698;2022-09-09T00:41:13;11.07;;;3.50;;
16862;SDS011;52193;48.216;-1.698;2022-09-09T00:43:46;10.95;;;3.67;;
16862;SDS011;52193;48.216;-1.698;2022-09-09T00:46:26;12.30;;;3.35;;
16862;SDS011;52193;48.216;-1.698;2022-09-09T00:49:20;13.13;;;3.50;;
16862;SDS011;52193;48.216;-1.698;2022-09-09T00:51:59;12.43;;;3.40;;
16862;SDS011;52193;48.216;-1.698;2022-09-09T00:54:40;10.75;;;3.45;;
16862;SDS011;52193;48.216;-1.698;2022-09-09T00:57:18;11.80;;;3.85;;
16862;SDS011;52193;48.216;-1.698;2022-09-09T00:59:56;11.38;;;3.60;;
16862;SDS011;52193;48.216;-1.698;2022-09-09T01:02:31;10.10;;;3.28;;
16862;SDS011;52193;48.216;-1.698;2022-09-09T01:05:06;10.88;;;3.40;;
16862;SDS011;52193;48.216;-1.698;2022-09-09T01:07:40;10.60;;;3.42;;
16862;SDS011;52193;48.216;-1.698;2022-09-09T01:10:15;12.75;;;3.45;;
16862;SDS011;52193;48.216;-1.698;2022-09-09T01:12:53;12.90;;;3.40;;
16862;SDS011;52193;48.216;-1.698;2022-09-09T01:15:25;10.68;;;3.50;;
16862;SDS011;52193;48.216;-1.698;2022-09-09T01:17:57;10.60;;;3.45;;
16862;SDS011;52193;48.216;-1.698;2022-09-09T01:20:28;12.70;;;3.28;;
16862;SDS011;52193;48.216;-1.698;2022-09-09T01:28:48;9.45;;;3.10;;
16862;SDS011;52193;48.216;-1.698;2022-09-09T01:31:18;9.10;;;3.30;;
16862;SDS011;52193;48.216;-1.698;2022-09-09T01:33:47;12.57;;;2.95;;
16862;SDS011;52193;48.216;-1.698;2022-09-09T01:36:17;7.55;;;3.10;;
16862;SDS011;52193;48.216;-1.698;2022-09-09T01:38:47;10.73;;;2.97;;
16862;SDS011;52193;48.216;-1.698;2022-09-09T01:41:14;6.20;;;2.90;;
16862;SDS011;52193;48.216;-1.698;2022-09-09T01:43:43;14.95;;;3.17;;
16862;SDS011;52193;48.216;-1.698;2022-09-09T01:46:10;8.80;;;2.80;;
16862;SDS011;52193;48.216;-1.698;2022-09-09T01:54:30;8.32;;;2.50;;
16862;SDS011;52193;48.216;-1.698;2022-09-09T01:57:01;8.60;;;2.85;;
16862;SDS011;52193;48.216;-1.698;2022-09-09T01:59:44;7.43;;;2.75;;
16862;SDS011;52193;48.216;-1.698;2022-09-09T02:02:19;6.55;;;2.60;;
16862;SDS011;52193;48.216;-1.698;2022-09-09T02:04:51;9.52;;;2.75;;
16862;SDS011;52193;48.216;-1.698;2022-09-09T02:07:25;9.65;;;2.90;;
16862;SDS011;52193;48.216;-1.698;2022-09-09T02:10:08;8.82;;;2.83;;
16862;SDS011;52193;48.216;-1.698;2022-09-09T02:12:38;11.77;;;3.03;;
16862;SDS011;52193;48.216;-1.698;2022-09-09T02:15:14;7.40;;;2.92;;
16862;SDS011;52193;48.216;-1.698;2022-09-09T02:17:46;7.82;;;2.60;;
16862;SDS011;52193;48.216;-1.698;2022-09-09T02:20:15;7.10;;;2.38;;
16862;SDS011;52193;48.216;-1.698;2022-09-09T02:22:45;6.07;;;2.38;;
16862;SDS011;52193;48.216;-1.698;2022-09-09T02:25:15;6.72;;;2.63;;
16862;SDS011;52193;48.216;-1.698;2022-09-09T02:27:45;7.75;;;2.55;;
16862;SDS011;52193;48.216;-1.698;2022-09-09T02:30:18;7.80;;;2.70;;
16862;SDS011;52193;48.216;-1.698;2022-09-09T02:32:46;4.68;;;2.47;;
16862;SDS011;52193;48.216;-1.698;2022-09-09T02:35:17;7.72;;;2.70;;
16862;SDS011;52193;48.216;-1.698;2022-09-09T02:37:47;7.95;;;2.80;;
16862;SDS011;52193;48.216;-1.698;2022-09-09T02:40:16;6.70;;;2.60;;
16862;SDS011;52193;48.216;-1.698;2022-09-09T02:42:44;8.52;;;2.78;;
16862;SDS011;52193;48.216;-1.698;2022-09-09T02:45:12;6.40;;;2.45;;
16862;SDS011;52193;48.216;-1.698;2022-09-09T02:47:46;8.75;;;2.55;;
16862;SDS011;52193;48.216;-1.698;2022-09-09T02:50:21;5.07;;;2.30;;
16862;SDS011;52193;48.216;-1.698;2022-09-09T02:52:54;10.45;;;3.13;;
16862;SDS011;52193;48.216;-1.698;2022-09-09T02:55:29;7.07;;;2.22;;
16862;SDS011;52193;48.216;-1.698;2022-09-09T02:58:04;6.28;;;2.05;;
16862;SDS011;52193;48.216;-1.698;2022-09-09T03:00:35;6.50;;;2.53;;
16862;SDS011;52193;48.216;-1.698;2022-09-09T03:03:03;6.25;;;2.42;;
16862;SDS011;52193;48.216;-1.698;2022-09-09T03:05:31;7.60;;;2.38;;
16862;SDS011;52193;48.216;-1.698;2022-09-09T03:07:58;7.35;;;2.28;;
16862;SDS011;52193;48.216;-1.698;2022-09-09T03:10:25;7.13;;;2.40;;
16862;SDS011;52193;48.216;-1.698;2022-09-09T03:12:52;9.63;;;2.75;;
16862;SDS011;52193;48.216;-1.698;2022-09-09T03:15:20;8.63;;;2.97;;
16862;SDS011;52193;48.216;-1.698;2022-09-09T03:17:47;7.85;;;2.72;;
16862;SDS011;52193;48.216;-1.698;2022-09-09T03:20:16;4.53;;;2.25;;
16862;SDS011;52193;48.216;-1.698;2022-09-09T03:22:43;5.03;;;2.20;;
16862;SDS011;52193;48.216;-1.698;2022-09-09T03:25:10;6.47;;;2.40;;
16862;SDS011;52193;48.216;-1.698;2022-09-09T03:27:37;8.57;;;2.60;;
16862;SDS011;52193;48.216;-1.698;2022-09-09T03:30:04;7.20;;;2.90;;
16862;SDS011;52193;48.216;-1.698;2022-09-09T03:32:32;8.20;;;2.85;;
16862;SDS011;52193;48.216;-1.698;2022-09-09T03:34:59;8.13;;;2.88;;
16862;SDS011;52193;48.216;-1.698;2022-09-09T03:37:27;10.02;;;2.97;;
16862;SDS011;52193;48.216;-1.698;2022-09-09T03:39:54;9.10;;;2.67;;
16862;SDS011;52193;48.216;-1.698;2022-09-09T03:42:21;8.32;;;2.53;;
16862;SDS011;52193;48.216;-1.698;2022-09-09T03:44:48;5.80;;;2.42;;
16862;SDS011;52193;48.216;-1.698;2022-09-09T03:47:16;5.10;;;2.35;;
16862;SDS011;52193;48.216;-1.698;2022-09-09T03:49:44;6.97;;;2.55;;
16862;SDS011;52193;48.216;-1.698;2022-09-09T03:52:11;4.93;;;2.40;;
16862;SDS011;52193;48.216;-1.698;2022-09-09T03:54:40;8.60;;;2.80;;
16862;SDS011;52193;48.216;-1.698;2022-09-09T03:57:08;7.70;;;2.60;;
16862;SDS011;52193;48.216;-1.698;2022-09-09T03:59:35;10.25;;;2.85;;
16862;SDS011;52193;48.216;-1.698;2022-09-09T04:02:03;8.88;;;2.75;;
16862;SDS011;52193;48.216;-1.698;2022-09-09T04:04:30;7.60;;;2.78;;
16862;SDS011;52193;48.216;-1.698;2022-09-09T04:06:57;8.35;;;2.25;;
16862;SDS011;52193;48.216;-1.698;2022-09-09T04:09:24;8.93;;;2.63;;
16862;SDS011;52193;48.216;-1.698;2022-09-09T04:11:52;5.90;;;2.60;;
16862;SDS011;52193;48.216;-1.698;2022-09-09T04:14:20;9.68;;;2.85;;
16862;SDS011;52193;48.216;-1.698;2022-09-09T04:16:47;6.25;;;2.70;;
16862;SDS011;52193;48.216;-1.698;2022-09-09T04:19:14;8.55;;;2.90;;
16862;SDS011;52193;48.216;-1.698;2022-09-09T04:21:41;8.70;;;2.70;;
16862;SDS011;52193;48.216;-1.698;2022-09-09T04:24:08;9.00;;;2.60;;
16862;SDS011;52193;48.216;-1.698;2022-09-09T04:26:35;7.88;;;2.58;;
16862;SDS011;52193;48.216;-1.698;2022-09-09T04:29:04;7.07;;;2.42;;
16862;SDS011;52193;48.216;-1.698;2022-09-09T04:31:32;9.73;;;2.65;;
16862;SDS011;52193;48.216;-1.698;2022-09-09T04:33:59;10.07;;;2.80;;
16862;SDS011;52193;48.216;-1.698;2022-09-09T04:36:29;7.05;;;2.60;;
16862;SDS011;52193;48.216;-1.698;2022-09-09T04:38:57;4.95;;;2.28;;
16862;SDS011;52193;48.216;-1.698;2022-09-09T04:41:25;10.55;;;2.88;;
16862;SDS011;52193;48.216;-1.698;2022-09-09T04:43:51;8.63;;;3.05;;
16862;SDS011;52193;48.216;-1.698;2022-09-09T04:46:20;10.10;;;2.97;;
16862;SDS011;52193;48.216;-1.698;2022-09-09T04:48:48;11.98;;;3.00;;
16862;SDS011;52193;48.216;-1.698;2022-09-09T04:51:15;8.02;;;3.03;;
16862;SDS011;52193;48.216;-1.698;2022-09-09T04:53:43;9.10;;;2.65;;
16862;SDS011;52193;48.216;-1.698;2022-09-09T04:56:10;8.45;;;2.50;;
16862;SDS011;52193;48.216;-1.698;2022-09-09T04:58:39;8.27;;;2.67;;
16862;SDS011;52193;48.216;-1.698;2022-09-09T05:01:08;7.82;;;2.95;;
16862;SDS011;52193;48.216;-1.698;2022-09-09T05:03:38;13.80;;;2.88;;
16862;SDS011;52193;48.216;-1.698;2022-09-09T05:06:06;7.38;;;3.00;;
16862;SDS011;52193;48.216;-1.698;2022-09-09T05:08:35;9.90;;;3.15;;
16862;SDS011;52193;48.216;-1.698;2022-09-09T05:11:02;8.27;;;2.55;;
16862;SDS011;52193;48.216;-1.698;2022-09-09T05:13:30;7.82;;;2.92;;
16862;SDS011;52193;48.216;-1.698;2022-09-09T05:15:57;9.70;;;2.75;;
16862;SDS011;52193;48.216;-1.698;2022-09-09T05:18:24;8.52;;;2.78;;
16862;SDS011;52193;48.216;-1.698;2022-09-09T05:20:56;9.52;;;3.15;;
16862;SDS011;52193;48.216;-1.698;2022-09-09T05:23:25;10.23;;;3.05;;
16862;SDS011;52193;48.216;-1.698;2022-09-09T05:25:55;9.18;;;2.70;;
16862;SDS011;52193;48.216;-1.698;2022-09-09T05:28:23;7.18;;;2.90;;
16862;SDS011;52193;48.216;-1.698;2022-09-09T05:30:55;11.27;;;3.33;;
16862;SDS011;52193;48.216;-1.698;2022-09-09T05:33:23;9.77;;;3.13;;
16862;SDS011;52193;48.216;-1.698;2022-09-09T05:35:56;6.85;;;2.83;;
16862;SDS011;52193;48.216;-1.698;2022-09-09T05:38:24;8.10;;;2.95;;
16862;SDS011;52193;48.216;-1.698;2022-09-09T05:40:51;6.63;;;2.58;;
16862;SDS011;52193;48.216;-1.698;2022-09-09T05:43:18;7.88;;;2.85;;
16862;SDS011;52193;48.216;-1.698;2022-09-09T05:45:46;7.05;;;2.95;;
16862;SDS011;52193;48.216;-1.698;2022-09-09T05:48:13;9.13;;;2.72;;
16862;SDS011;52193;48.216;-1.698;2022-09-09T05:50:41;9.98;;;3.42;;
16862;SDS011;52193;48.216;-1.698;2022-09-09T05:53:09;12.90;;;3.97;;
16862;SDS011;52193;48.216;-1.698;2022-09-09T05:55:36;8.15;;;2.97;;
16862;SDS011;52193;48.216;-1.698;2022-09-09T05:58:03;11.00;;;2.88;;
16862;SDS011;52193;48.216;-1.698;2022-09-09T06:00:30;11.18;;;2.88;;
16862;SDS011;52193;48.216;-1.698;2022-09-09T06:02:57;11.23;;;3.35;;
16862;SDS011;52193;48.216;-1.698;2022-09-09T06:05:25;9.18;;;3.10;;
16862;SDS011;52193;48.216;-1.698;2022-09-09T06:07:53;10.30;;;3.35;;
16862;SDS011;52193;48.216;-1.698;2022-09-09T06:10:22;14.27;;;3.75;;
16862;SDS011;52193;48.216;-1.698;2022-09-09T06:12:51;14.35;;;3.13;;
16862;SDS011;52193;48.216;-1.698;2022-09-09T06:15:19;8.73;;;3.20;;
16862;SDS011;52193;48.216;-1.698;2022-09-09T06:17:46;10.40;;;3.13;;
16862;SDS011;52193;48.216;-1.698;2022-09-09T06:20:20;10.55;;;3.30;;
16862;SDS011;52193;48.216;-1.698;2022-09-09T06:22:47;9.07;;;2.80;;
16862;SDS011;52193;48.216;-1.698;2022-09-09T06:25:14;11.75;;;3.80;;
16862;SDS011;52193;48.216;-1.698;2022-09-09T06:27:47;9.50;;;3.10;;
16862;SDS011;52193;48.216;-1.698;2022-09-09T06:30:15;12.68;;;3.67;;
16862;SDS011;52193;48.216;-1.698;2022-09-09T06:32:43;8.00;;;2.85;;
16862;SDS011;52193;48.216;-1.698;2022-09-09T06:35:10;11.45;;;3.03;;
16862;SDS011;52193;48.216;-1.698;2022-09-09T06:37:38;9.20;;;3.30;;
16862;SDS011;52193;48.216;-1.698;2022-09-09T06:40:06;9.07;;;3.35;;
16862;SDS011;52193;48.216;-1.698;2022-09-09T06:42:33;13.00;;;3.53;;
16862;SDS011;52193;48.216;-1.698;2022-09-09T06:45:02;10.48;;;3.58;;
16862;SDS011;52193;48.216;-1.698;2022-09-09T06:47:29;7.95;;;2.90;;
16862;SDS011;52193;48.216;-1.698;2022-09-09T06:49:56;9.38;;;3.03;;
16862;SDS011;52193;48.216;-1.698;2022-09-09T06:52:23;8.60;;;3.15;;
16862;SDS011;52193;48.216;-1.698;2022-09-09T06:54:50;8.20;;;3.10;;
16862;SDS011;52193;48.216;-1.698;2022-09-09T06:57:18;11.68;;;3.38;;
16862;SDS011;52193;48.216;-1.698;2022-09-09T06:59:45;13.48;;;3.63;;
16862;SDS011;52193;48.216;-1.698;2022-09-09T07:02:14;9.38;;;3.08;;
16862;SDS011;52193;48.216;-1.698;2022-09-09T07:04:41;8.90;;;2.70;;
16862;SDS011;52193;48.216;-1.698;2022-09-09T07:07:09;13.02;;;3.00;;
16862;SDS011;52193;48.216;-1.698;2022-09-09T07:09:38;8.52;;;3.05;;
16862;SDS011;52193;48.216;-1.698;2022-09-09T07:12:05;9.20;;;2.83;;
16862;SDS011;52193;48.216;-1.698;2022-09-09T07:14:32;10.02;;;3.67;;
16862;SDS011;52193;48.216;-1.698;2022-09-09T07:17:02;7.53;;;2.60;;
16862;SDS011;52193;48.216;-1.698;2022-09-09T07:19:30;10.25;;;3.00;;
16862;SDS011;52193;48.216;-1.698;2022-09-09T07:21:59;10.82;;;2.90;;
16862;SDS011;52193;48.216;-1.698;2022-09-09T07:24:27;8.18;;;2.70;;
16862;SDS011;52193;48.216;-1.698;2022-09-09T07:26:55;9.50;;;3.13;;
16862;SDS011;52193;48.216;-1.698;2022-09-09T07:29:22;9.45;;;3.03;;
16862;SDS011;52193;48.216;-1.698;2022-09-09T07:31:49;9.70;;;3.00;;
16862;SDS011;52193;48.216;-1.698;2022-09-09T07:34:16;10.55;;;3.70;;
16862;SDS011;52193;48.216;-1.698;2022-09-09T07:36:45;8.57;;;2.97;;
16862;SDS011;52193;48.216;-1.698;2022-09-09T07:39:12;7.82;;;2.90;;
16862;SDS011;52193;48.216;-1.698;2022-09-09T07:41:42;10.23;;;3.10;;
16862;SDS011;52193;48.216;-1.698;2022-09-09T07:44:11;7.72;;;3.05;;
16862;SDS011;52193;48.216;-1.698;2022-09-09T07:46:40;9.68;;;3.33;;
16862;SDS011;52193;48.216;-1.698;2022-09-09T07:49:07;9.05;;;2.88;;
16862;SDS011;52193;48.216;-1.698;2022-09-09T07:51:36;6.63;;;2.78;;
16862;SDS011;52193;48.216;-1.698;2022-09-09T07:54:06;9.23;;;2.90;;
16862;SDS011;52193;48.216;-1.698;2022-09-09T07:56:35;7.78;;;2.83;;
16862;SDS011;52193;48.216;-1.698;2022-09-09T07:59:02;9.50;;;2.55;;
16862;SDS011;52193;48.216;-1.698;2022-09-09T08:01:32;6.85;;;2.50;;
16862;SDS011;52193;48.216;-1.698;2022-09-09T08:04:03;6.57;;;2.67;;
16862;SDS011;52193;48.216;-1.698;2022-09-09T08:06:33;9.35;;;3.03;;
16862;SDS011;52193;48.216;-1.698;2022-09-09T08:09:02;7.20;;;2.45;;
16862;SDS011;52193;48.216;-1.698;2022-09-09T08:11:31;9.32;;;2.78;;
16862;SDS011;52193;48.216;-1.698;2022-09-09T08:13:59;7.93;;;3.08;;
16862;SDS011;52193;48.216;-1.698;2022-09-09T08:16:27;6.85;;;2.63;;
16862;SDS011;52193;48.216;-1.698;2022-09-09T08:18:56;12.88;;;3.15;;
16862;SDS011;52193;48.216;-1.698;2022-09-09T08:21:25;8.05;;;2.80;;
16862;SDS011;52193;48.216;-1.698;2022-09-09T08:23:53;10.70;;;3.45;;
16862;SDS011;52193;48.216;-1.698;2022-09-09T08:26:22;10.82;;;2.92;;
16862;SDS011;52193;48.216;-1.698;2022-09-09T08:28:53;9.50;;;2.70;;
16862;SDS011;52193;48.216;-1.698;2022-09-09T08:31:22;5.53;;;2.58;;
16862;SDS011;52193;48.216;-1.698;2022-09-09T08:33:50;8.07;;;2.85;;
16862;SDS011;52193;48.216;-1.698;2022-09-09T08:36:18;7.50;;;3.25;;
16862;SDS011;52193;48.216;-1.698;2022-09-09T08:38:47;10.27;;;2.78;;
16862;SDS011;52193;48.216;-1.698;2022-09-09T08:41:20;8.18;;;2.90;;
16862;SDS011;52193;48.216;-1.698;2022-09-09T08:44:08;12.35;;;3.38;;
16862;SDS011;52193;48.216;-1.698;2022-09-09T08:46:42;11.05;;;2.85;;
16862;SDS011;52193;48.216;-1.698;2022-09-09T08:49:20;8.02;;;2.95;;
16862;SDS011;52193;48.216;-1.698;2022-09-09T08:51:58;7.85;;;2.95;;
16862;SDS011;52193;48.216;-1.698;2022-09-09T08:54:26;10.65;;;2.80;;
16862;SDS011;52193;48.216;-1.698;2022-09-09T08:56:58;8.65;;;2.95;;
16862;SDS011;52193;48.216;-1.698;2022-09-09T08:59:27;10.43;;;3.08;;
16862;SDS011;52193;48.216;-1.698;2022-09-09T09:01:56;9.02;;;2.80;;
16862;SDS011;52193;48.216;-1.698;2022-09-09T09:04:31;6.57;;;2.70;;
16862;SDS011;52193;48.216;-1.698;2022-09-09T09:07:07;8.18;;;2.63;;
16862;SDS011;52193;48.216;-1.698;2022-09-09T09:09:42;7.03;;;2.90;;
16862;SDS011;52193;48.216;-1.698;2022-09-09T09:12:18;10.50;;;3.10;;
16862;SDS011;52193;48.216;-1.698;2022-09-09T09:14:49;12.27;;;2.97;;
16862;SDS011;52193;48.216;-1.698;2022-09-09T09:17:16;9.20;;;2.40;;
16862;SDS011;52193;48.216;-1.698;2022-09-09T09:19:46;5.70;;;2.60;;
16862;SDS011;52193;48.216;-1.698;2022-09-09T09:22:16;8.15;;;2.80;;
16862;SDS011;52193;48.216;-1.698;2022-09-09T09:24:49;9.23;;;2.80;;
16862;SDS011;52193;48.216;-1.698;2022-09-09T09:27:21;8.27;;;2.95;;
16862;SDS011;52193;48.216;-1.698;2022-09-09T09:29:58;8.27;;;2.45;;
16862;SDS011;52193;48.216;-1.698;2022-09-09T09:32:28;6.38;;;2.45;;
16862;SDS011;52193;48.216;-1.698;2022-09-09T09:34:59;5.35;;;2.30;;
16862;SDS011;52193;48.216;-1.698;2022-09-09T09:37:32;7.50;;;2.60;;
16862;SDS011;52193;48.216;-1.698;2022-09-09T09:40:10;5.90;;;2.30;;
16862;SDS011;52193;48.216;-1.698;2022-09-09T09:42:38;9.70;;;2.92;;
16862;SDS011;52193;48.216;-1.698;2022-09-09T09:45:17;5.68;;;2.35;;
16862;SDS011;52193;48.216;-1.698;2022-09-09T09:47:57;8.93;;;3.20;;
16862;SDS011;52193;48.216;-1.698;2022-09-09T09:50:27;8.50;;;2.95;;
16862;SDS011;52193;48.216;-1.698;2022-09-09T09:52:55;8.07;;;2.50;;
16862;SDS011;52193;48.216;-1.698;2022-09-09T09:55:23;7.45;;;2.47;;
16862;SDS011;52193;48.216;-1.698;2022-09-09T09:57:52;5.30;;;2.22;;
16862;SDS011;52193;48.216;-1.698;2022-09-09T10:00:22;8.32;;;2.50;;
16862;SDS011;52193;48.216;-1.698;2022-09-09T10:02:49;7.07;;;2.78;;
16862;SDS011;52193;48.216;-1.698;2022-09-09T10:05:18;6.88;;;2.50;;
16862;SDS011;52193;48.216;-1.698;2022-09-09T10:08:00;7.85;;;2.63;;
16862;SDS011;52193;48.216;-1.698;2022-09-09T10:10:32;6.90;;;2.17;;
16862;SDS011;52193;48.216;-1.698;2022-09-09T10:13:07;5.38;;;2.15;;
16862;SDS011;52193;48.216;-1.698;2022-09-09T10:15:46;7.32;;;2.60;;
16862;SDS011;52193;48.216;-1.698;2022-09-09T10:18:25;8.30;;;2.55;;
16862;SDS011;52193;48.216;-1.698;2022-09-09T10:21:12;3.70;;;2.08;;
16862;SDS011;52193;48.216;-1.698;2022-09-09T10:23:52;7.30;;;2.30;;
16862;SDS011;52193;48.216;-1.698;2022-09-09T10:26:34;5.43;;;2.50;;
16862;SDS011;52193;48.216;-1.698;2022-09-09T10:31:57;6.80;;;2.65;;
16862;SDS011;52193;48.216;-1.698;2022-09-09T10:34:40;6.78;;;2.40;;
16862;SDS011;52193;48.216;-1.698;2022-09-09T10:37:20;9.88;;;2.75;;
16862;SDS011;52193;48.216;-1.698;2022-09-09T10:39:56;6.30;;;2.35;;
16862;SDS011;52193;48.216;-1.698;2022-09-09T10:42:33;5.95;;;2.00;;
16862;SDS011;52193;48.216;-1.698;2022-09-09T10:45:03;5.57;;;2.33;;
16862;SDS011;52193;48.216;-1.698;2022-09-09T10:47:55;5.60;;;2.40;;
16862;SDS011;52193;48.216;-1.698;2022-09-09T10:53:22;4.80;;;2.00;;
16862;SDS011;52193;48.216;-1.698;2022-09-09T10:56:01;7.13;;;2.28;;
16862;SDS011;52193;48.216;-1.698;2022-09-09T10:58:35;5.38;;;2.08;;
16862;SDS011;52193;48.216;-1.698;2022-09-09T11:01:09;7.15;;;2.22;;
16862;SDS011;52193;48.216;-1.698;2022-09-09T11:03:43;7.63;;;2.45;;
16862;SDS011;52193;48.216;-1.698;2022-09-09T11:06:16;6.45;;;2.15;;
16862;SDS011;52193;48.216;-1.698;2022-09-09T11:08:48;3.30;;;1.70;;
16862;SDS011;52193;48.216;-1.698;2022-09-09T11:11:19;4.10;;;1.98;;
16862;SDS011;52193;48.216;-1.698;2022-09-09T11:13:53;4.13;;;1.80;;
16862;SDS011;52193;48.216;-1.698;2022-09-09T11:16:27;4.30;;;1.58;;
16862;SDS011;52193;48.216;-1.698;2022-09-09T11:18:59;3.03;;;1.63;;
16862;SDS011;52193;48.216;-1.698;2022-09-09T11:21:30;3.35;;;1.80;;
16862;SDS011;52193;48.216;-1.698;2022-09-09T11:24:03;3.17;;;1.70;;
16862;SDS011;52193;48.216;-1.698;2022-09-09T11:26:37;6.30;;;1.80;;
16862;SDS011;52193;48.216;-1.698;2022-09-09T11:29:10;4.38;;;1.80;;
16862;SDS011;52193;48.216;-1.698;2022-09-09T11:31:53;3.65;;;1.67;;
16862;SDS011;52193;48.216;-1.698;2022-09-09T11:34:42;4.72;;;2.08;;
16862;SDS011;52193;48.216;-1.698;2022-09-09T11:40:21;4.32;;;2.08;;
16862;SDS011;52193;48.216;-1.698;2022-09-09T11:43:00;5.28;;;2.00;;
16862;SDS011;52193;48.216;-1.698;2022-09-09T11:45:29;5.80;;;2.22;;
16862;SDS011;52193;48.216;-1.698;2022-09-09T11:47:58;3.97;;;1.80;;
16862;SDS011;52193;48.216;-1.698;2022-09-09T11:50:29;5.57;;;1.80;;
16862;SDS011;52193;48.216;-1.698;2022-09-09T11:53:05;4.60;;;1.70;;
16862;SDS011;52193;48.216;-1.698;2022-09-09T11:58:34;5.75;;;1.98;;
16862;SDS011;52193;48.216;-1.698;2022-09-09T12:01:13;3.83;;;1.85;;
16862;SDS011;52193;48.216;-1.698;2022-09-09T12:04:00;3.35;;;1.83;;
16862;SDS011;52193;48.216;-1.698;2022-09-09T12:06:42;4.13;;;1.60;;
16862;SDS011;52193;48.216;-1.698;2022-09-09T12:09:17;3.72;;;1.33;;
16862;SDS011;52193;48.216;-1.698;2022-09-09T12:11:48;3.53;;;1.75;;
16862;SDS011;52193;48.216;-1.698;2022-09-09T12:14:19;4.43;;;1.50;;
16862;SDS011;52193;48.216;-1.698;2022-09-09T12:16:48;4.28;;;1.35;;
16862;SDS011;52193;48.216;-1.698;2022-09-09T12:19:16;2.78;;;1.40;;
16862;SDS011;52193;48.216;-1.698;2022-09-09T12:21:51;2.72;;;1.30;;
16862;SDS011;52193;48.216;-1.698;2022-09-09T12:24:26;2.47;;;1.10;;
16862;SDS011;52193;48.216;-1.698;2022-09-09T12:26:58;2.88;;;1.33;;
16862;SDS011;52193;48.216;-1.698;2022-09-09T12:29:33;3.28;;;1.30;;
16862;SDS011;52193;48.216;-1.698;2022-09-09T12:32:09;2.22;;;1.02;;
16862;SDS011;52193;48.216;-1.698;2022-09-09T12:34:38;3.40;;;1.50;;
16862;SDS011;52193;48.216;-1.698;2022-09-09T12:37:12;3.17;;;1.20;;
16862;SDS011;52193;48.216;-1.698;2022-09-09T12:39:49;3.60;;;1.10;;
16862;SDS011;52193;48.216;-1.698;2022-09-09T12:42:20;2.80;;;1.20;;
16862;SDS011;52193;48.216;-1.698;2022-09-09T12:44:52;3.28;;;1.30;;
16862;SDS011;52193;48.216;-1.698;2022-09-09T12:47:21;3.08;;;1.55;;
16862;SDS011;52193;48.216;-1.698;2022-09-09T12:49:51;3.47;;;1.60;;
16862;SDS011;52193;48.216;-1.698;2022-09-09T12:52:24;3.42;;;1.48;;
16862;SDS011;52193;48.216;-1.698;2022-09-09T12:54:55;3.28;;;1.65;;
16862;SDS011;52193;48.216;-1.698;2022-09-09T12:57:23;3.60;;;1.25;;
16862;SDS011;52193;48.216;-1.698;2022-09-09T12:59:51;4.53;;;1.42;;
16862;SDS011;52193;48.216;-1.698;2022-09-09T13:02:20;3.50;;;1.75;;
16862;SDS011;52193;48.216;-1.698;2022-09-09T13:04:48;4.70;;;1.83;;
16862;SDS011;52193;48.216;-1.698;2022-09-09T13:07:16;4.47;;;1.75;;
16862;SDS011;52193;48.216;-1.698;2022-09-09T13:09:46;4.88;;;1.90;;
16862;SDS011;52193;48.216;-1.698;2022-09-09T13:12:15;6.05;;;2.25;;
16862;SDS011;52193;48.216;-1.698;2022-09-09T13:14:45;6.18;;;2.45;;
16862;SDS011;52193;48.216;-1.698;2022-09-09T13:17:17;24.05;;;3.65;;
16862;SDS011;52193;48.216;-1.698;2022-09-09T13:19:47;7.65;;;2.65;;
16862;SDS011;52193;48.216;-1.698;2022-09-09T13:22:20;7.75;;;2.53;;
16862;SDS011;52193;48.216;-1.698;2022-09-09T13:24:59;4.80;;;2.10;;
16862;SDS011;52193;48.216;-1.698;2022-09-09T13:27:32;3.58;;;2.08;;
16862;SDS011;52193;48.216;-1.698;2022-09-09T13:32:47;3.35;;;1.92;;
16862;SDS011;52193;48.216;-1.698;2022-09-09T13:35:26;5.32;;;1.83;;
16862;SDS011;52193;48.216;-1.698;2022-09-09T13:37:53;3.42;;;1.70;;
16862;SDS011;52193;48.216;-1.698;2022-09-09T13:40:22;3.65;;;1.67;;
16862;SDS011;52193;48.216;-1.698;2022-09-09T13:42:51;3.70;;;1.40;;
16862;SDS011;52193;48.216;-1.698;2022-09-09T13:45:22;3.92;;;1.80;;
16862;SDS011;52193;48.216;-1.698;2022-09-09T13:47:51;5.18;;;1.67;;
16862;SDS011;52193;48.216;-1.698;2022-09-09T13:50:21;4.30;;;1.95;;
16862;SDS011;52193;48.216;-1.698;2022-09-09T13:52:50;3.53;;;1.77;;
16862;SDS011;52193;48.216;-1.698;2022-09-09T13:55:18;4.68;;;1.70;;
16862;SDS011;52193;48.216;-1.698;2022-09-09T13:57:54;3.60;;;1.75;;
16862;SDS011;52193;48.216;-1.698;2022-09-09T14:00:23;4.93;;;1.60;;
16862;SDS011;52193;48.216;-1.698;2022-09-09T14:02:50;4.22;;;1.80;;
16862;SDS011;52193;48.216;-1.698;2022-09-09T14:05:20;3.75;;;1.58;;
16862;SDS011;52193;48.216;-1.698;2022-09-09T14:07:47;3.30;;;1.50;;
16862;SDS011;52193;48.216;-1.698;2022-09-09T14:10:15;3.30;;;1.67;;
16862;SDS011;52193;48.216;-1.698;2022-09-09T14:12:42;2.60;;;1.58;;
16862;SDS011;52193;48.216;-1.698;2022-09-09T14:15:11;3.30;;;1.48;;
16862;SDS011;52193;48.216;-1.698;2022-09-09T14:17:39;3.28;;;1.63;;
16862;SDS011;52193;48.216;-1.698;2022-09-09T14:20:06;3.15;;;1.65;;
16862;SDS011;52193;48.216;-1.698;2022-09-09T14:22:35;3.20;;;1.63;;
16862;SDS011;52193;48.216;-1.698;2022-09-09T14:25:04;2.35;;;1.27;;
16862;SDS011;52193;48.216;-1.698;2022-09-09T14:27:32;3.25;;;1.63;;
16862;SDS011;52193;48.216;-1.698;2022-09-09T14:29:59;2.15;;;1.33;;
16862;SDS011;52193;48.216;-1.698;2022-09-09T14:32:27;2.38;;;1.20;;
16862;SDS011;52193;48.216;-1.698;2022-09-09T14:34:54;3.30;;;1.27;;
16862;SDS011;52193;48.216;-1.698;2022-09-09T14:37:21;3.95;;;1.60;;
16862;SDS011;52193;48.216;-1.698;2022-09-09T14:39:49;4.45;;;1.70;;
16862;SDS011;52193;48.216;-1.698;2022-09-09T14:42:16;2.53;;;1.38;;
16862;SDS011;52193;48.216;-1.698;2022-09-09T14:44:43;2.33;;;1.42;;
16862;SDS011;52193;48.216;-1.698;2022-09-09T14:47:10;1.98;;;1.23;;
16862;SDS011;52193;48.216;-1.698;2022-09-09T14:49:39;3.40;;;1.70;;
16862;SDS011;52193;48.216;-1.698;2022-09-09T14:52:06;2.50;;;1.52;;
16862;SDS011;52193;48.216;-1.698;2022-09-09T14:54:34;2.90;;;1.50;;
16862;SDS011;52193;48.216;-1.698;2022-09-09T14:57:01;5.25;;;1.90;;
16862;SDS011;52193;48.216;-1.698;2022-09-09T14:59:28;2.13;;;1.45;;
16862;SDS011;52193;48.216;-1.698;2022-09-09T15:01:55;3.63;;;1.85;;
16862;SDS011;52193;48.216;-1.698;2022-09-09T15:04:22;3.15;;;1.48;;
16862;SDS011;52193;48.216;-1.698;2022-09-09T15:06:50;3.65;;;1.85;;
16862;SDS011;52193;48.216;-1.698;2022-09-09T15:09:18;3.10;;;1.40;;
16862;SDS011;52193;48.216;-1.698;2022-09-09T15:11:45;2.80;;;1.50;;
16862;SDS011;52193;48.216;-1.698;2022-09-09T15:14:12;3.30;;;1.75;;
16862;SDS011;52193;48.216;-1.698;2022-09-09T15:16:39;5.35;;;1.73;;